»·PEaware :: N5491J KSMO-KHHR

N5491J :: KSMO-KHHR

FLIGHT INFORMATION

Flight Status: Arrived
Operator: Privately registered:
United States
More flights under this callsign
Pilot: Aero Safety Training (369)
Aircraft: CESSNA 172 SKYHAWK
(C172)
More flights by this aircraft type
Origin: KSMO Santa Monica Mun
United States
Destination: KHHR Northrop/Hawthorne Mun
United States
More flights between these airports :: More routes between these airports
Route: SMO SMO125R V64 SLI SLI340R WELLZ
File this flight plan on PilotEdge
Remarks: practicing IFR procedures, IMC conditions
Altitude:
(Current/Filed)
30ft
Speed:
(Current/Filed)
105kts
Departed: 21-Jan-15 10:46 AM
Arrived: 21-Jan-15 11:22 AM
Distance/Time
Traveled:
8nm/0:35
Distance/Time
To Go:
Arrived

Flight Plot

Page will automatically refresh every two minutes.


Map Options




Map Legend


Flown Route
Filed Route
Departure Airport
Arrival Airport
Navaid (VOR, NDB)
Fix

Horizontal Profiles

Position Reports

Time Latitude Longitude Heading Altitude Ground
Speed
21-Jan-15 10:15 34.019240 -118.449442 76 178ft 0kts
21-Jan-15 10:16 34.019240 -118.449441 76 178ft 0kts
21-Jan-15 10:17 34.019241 -118.449439 76 178ft 0kts
21-Jan-15 10:18 34.019241 -118.449438 76 178ft 0kts
21-Jan-15 10:19 34.019241 -118.449437 76 178ft 0kts
21-Jan-15 10:20 34.019241 -118.449436 76 178ft 0kts
21-Jan-15 10:21 34.019242 -118.449434 77 178ft 0kts
21-Jan-15 10:22 34.019242 -118.449433 77 178ft 0kts
21-Jan-15 10:23 34.019242 -118.449432 77 178ft 0kts
21-Jan-15 10:24 34.019242 -118.449431 77 178ft 0kts
21-Jan-15 10:25 34.019243 -118.449429 77 178ft 0kts
21-Jan-15 10:26 34.019243 -118.449428 77 178ft 0kts
21-Jan-15 10:27 34.019243 -118.449427 77 178ft 0kts
21-Jan-15 10:28 34.019243 -118.449426 77 178ft 0kts
21-Jan-15 10:29 34.019243 -118.449424 77 178ft 0kts
21-Jan-15 10:30 34.019244 -118.449423 77 178ft 0kts
21-Jan-15 10:31 34.019244 -118.449422 77 178ft 0kts
21-Jan-15 10:32 34.019244 -118.449421 77 178ft 0kts
21-Jan-15 10:33 34.019244 -118.449419 77 178ft 0kts
21-Jan-15 10:34 34.019245 -118.449418 77 178ft 0kts
21-Jan-15 10:35 34.019245 -118.449417 77 178ft 0kts
21-Jan-15 10:36 34.019245 -118.449416 77 178ft 0kts
21-Jan-15 10:37 34.019711 -118.447939 45 178ft 14kts
21-Jan-15 10:38 34.020827 -118.446228 124 178ft 0kts
21-Jan-15 10:39 34.020826 -118.446226 124 178ft 0kts
21-Jan-15 10:40 34.019513 -118.446929 223 178ft 38kts
21-Jan-15 10:41 34.005282 -118.463304 221 957ft 79kts
21-Jan-15 10:42 33.991622 -118.478805 229 1891ft 84kts
21-Jan-15 10:43 33.988848 -118.513616 317 2061ft 107kts
21-Jan-15 10:44 34.005509 -118.492709 78 3122ft 91kts
21-Jan-15 10:45 34.008934 -118.466933 81 3822ft 93kts
21-Jan-15 10:46 34.006581 -118.435259 149 4000ft 102kts
21-Jan-15 10:47 33.979285 -118.425102 140 4044ft 104kts
21-Jan-15 10:48 33.956305 -118.402134 137 4068ft 108kts
21-Jan-15 10:49 33.933311 -118.377906 138 4103ft 107kts
21-Jan-15 10:50 33.908968 -118.354308 139 4067ft 110kts
21-Jan-15 10:51 33.886033 -118.328975 137 4002ft 116kts
21-Jan-15 10:52 33.862263 -118.304458 139 4020ft 108kts
21-Jan-15 10:53 33.838488 -118.281821 141 4023ft 105kts
21-Jan-15 10:54 33.816094 -118.258674 137 3998ft 108kts
21-Jan-15 10:55 33.793463 -118.235103 138 3995ft 108kts
21-Jan-15 10:56 33.770683 -118.211976 136 4024ft 105kts
21-Jan-15 10:57 33.772109 -118.179529 72 4051ft 105kts
21-Jan-15 10:58 33.777815 -118.144455 85 4022ft 107kts
21-Jan-15 10:59 33.779694 -118.108450 84 4013ft 107kts
21-Jan-15 11:00 33.782126 -118.072853 86 4052ft 104kts
21-Jan-15 11:01 33.789378 -118.040001 40 4074ft 104kts
21-Jan-15 11:02 33.814847 -118.047903 319 4030ft 107kts
21-Jan-15 11:03 33.841920 -118.061224 353 4026ft 107kts
21-Jan-15 11:04 33.871656 -118.065346 354 3425ft 107kts
21-Jan-15 11:05 33.901365 -118.067320 354 2712ft 106kts
21-Jan-15 11:06 33.929285 -118.076932 292 2749ft 105kts
21-Jan-15 11:07 33.933474 -118.111231 267 2414ft 102kts
21-Jan-15 11:08 33.931926 -118.145859 268 1719ft 100kts
21-Jan-15 11:09 33.930234 -118.176541 265 1522ft 92kts
21-Jan-15 11:10 33.928781 -118.207625 265 1395ft 94kts
21-Jan-15 11:11 33.927086 -118.239514 265 714ft 90kts
21-Jan-15 11:12 33.925992 -118.269966 265 627ft 93kts
21-Jan-15 11:13 33.922605 -118.300921 251 657ft 92kts
21-Jan-15 11:14 33.913212 -118.330245 262 618ft 97kts
21-Jan-15 11:15 33.918809 -118.355340 357 577ft 69kts
21-Jan-15 11:16 33.922775 -118.336543 86 72ft 45kts
21-Jan-15 11:17 33.923483 -118.331733 319 69ft 0kts
21-Jan-15 11:18 33.923465 -118.333850 266 69ft 27kts
21-Jan-15 11:19 33.923616 -118.337912 160 69ft 0kts
21-Jan-15 11:20 33.923616 -118.337912 160 69ft 0kts

Navigation Log

Ident Type
1. KSMO Airport
2. SMO Navaid
3. SLI Navaid
4. WELLZ Fix
5. KHHR Airport